sensor_id;sensor_type;location;lat;lon;timestamp;P1;durP1;ratioP1;P2;durP2;ratioP2
18716;SDS011;9487;50.892;6.906;2023-02-18T00:01:07;8.93;;;8.03;;
18716;SDS011;9487;50.892;6.906;2023-02-18T00:03:36;9.37;;;8.53;;
18716;SDS011;9487;50.892;6.906;2023-02-18T00:06:09;9.50;;;8.60;;
18716;SDS011;9487;50.892;6.906;2023-02-18T00:08:37;8.53;;;6.37;;
18716;SDS011;9487;50.892;6.906;2023-02-18T00:11:04;8.87;;;7.63;;
18716;SDS011;9487;50.892;6.906;2023-02-18T00:13:31;8.90;;;8.00;;
18716;SDS011;9487;50.892;6.906;2023-02-18T00:15:59;8.70;;;7.90;;
18716;SDS011;9487;50.892;6.906;2023-02-18T00:18:27;9.30;;;8.40;;
18716;SDS011;9487;50.892;6.906;2023-02-18T00:20:55;9.03;;;8.13;;
18716;SDS011;9487;50.892;6.906;2023-02-18T00:23:22;9.57;;;8.57;;
18716;SDS011;9487;50.892;6.906;2023-02-18T00:25:49;10.40;;;9.40;;
18716;SDS011;9487;50.892;6.906;2023-02-18T00:28:23;8.47;;;7.50;;
18716;SDS011;9487;50.892;6.906;2023-02-18T00:30:50;9.33;;;8.47;;
18716;SDS011;9487;50.892;6.906;2023-02-18T00:33:17;9.40;;;8.50;;
18716;SDS011;9487;50.892;6.906;2023-02-18T00:35:44;8.70;;;7.90;;
18716;SDS011;9487;50.892;6.906;2023-02-18T00:38:12;8.27;;;7.53;;
18716;SDS011;9487;50.892;6.906;2023-02-18T00:40:39;9.00;;;8.10;;
18716;SDS011;9487;50.892;6.906;2023-02-18T00:43:06;9.50;;;8.60;;
18716;SDS011;9487;50.892;6.906;2023-02-18T00:45:33;9.00;;;8.13;;
18716;SDS011;9487;50.892;6.906;2023-02-18T00:48:00;8.80;;;7.90;;
18716;SDS011;9487;50.892;6.906;2023-02-18T00:50:27;8.80;;;8.00;;
18716;SDS011;9487;50.892;6.906;2023-02-18T00:52:54;7.83;;;7.20;;
18716;SDS011;9487;50.892;6.906;2023-02-18T00:55:22;9.17;;;8.23;;
18716;SDS011;9487;50.892;6.906;2023-02-18T00:57:48;8.53;;;7.73;;
18716;SDS011;9487;50.892;6.906;2023-02-18T01:00:15;8.87;;;8.07;;
18716;SDS011;9487;50.892;6.906;2023-02-18T01:02:43;8.00;;;7.30;;
18716;SDS011;9487;50.892;6.906;2023-02-18T01:05:09;8.23;;;7.43;;
18716;SDS011;9487;50.892;6.906;2023-02-18T01:07:36;8.03;;;7.23;;
18716;SDS011;9487;50.892;6.906;2023-02-18T01:10:04;8.77;;;7.87;;
18716;SDS011;9487;50.892;6.906;2023-02-18T01:12:32;7.70;;;7.00;;
18716;SDS011;9487;50.892;6.906;2023-02-18T01:14:59;7.17;;;6.47;;
18716;SDS011;9487;50.892;6.906;2023-02-18T01:17:26;7.50;;;6.80;;
18716;SDS011;9487;50.892;6.906;2023-02-18T01:19:53;8.07;;;7.27;;
18716;SDS011;9487;50.892;6.906;2023-02-18T01:22:20;7.10;;;6.40;;
18716;SDS011;9487;50.892;6.906;2023-02-18T01:24:47;7.67;;;6.97;;
18716;SDS011;9487;50.892;6.906;2023-02-18T01:27:13;7.27;;;6.50;;
18716;SDS011;9487;50.892;6.906;2023-02-18T01:29:41;8.17;;;7.37;;
18716;SDS011;9487;50.892;6.906;2023-02-18T01:32:08;8.00;;;7.20;;
18716;SDS011;9487;50.892;6.906;2023-02-18T01:34:36;8.83;;;8.03;;
18716;SDS011;9487;50.892;6.906;2023-02-18T01:37:02;7.33;;;6.60;;
18716;SDS011;9487;50.892;6.906;2023-02-18T01:39:29;7.90;;;7.10;;
18716;SDS011;9487;50.892;6.906;2023-02-18T01:41:56;8.73;;;7.90;;
18716;SDS011;9487;50.892;6.906;2023-02-18T01:44:24;7.37;;;6.70;;
18716;SDS011;9487;50.892;6.906;2023-02-18T01:46:54;7.80;;;7.10;;
18716;SDS011;9487;50.892;6.906;2023-02-18T01:49:22;8.77;;;7.87;;
18716;SDS011;9487;50.892;6.906;2023-02-18T01:51:53;8.40;;;7.60;;
18716;SDS011;9487;50.892;6.906;2023-02-18T01:54:25;8.10;;;7.30;;
18716;SDS011;9487;50.892;6.906;2023-02-18T01:56:55;8.60;;;7.80;;
18716;SDS011;9487;50.892;6.906;2023-02-18T01:59:27;8.67;;;7.87;;
18716;SDS011;9487;50.892;6.906;2023-02-18T02:01:58;8.13;;;7.33;;
18716;SDS011;9487;50.892;6.906;2023-02-18T02:04:25;8.70;;;7.80;;
18716;SDS011;9487;50.892;6.906;2023-02-18T02:06:52;7.90;;;7.10;;
18716;SDS011;9487;50.892;6.906;2023-02-18T02:09:19;8.53;;;7.73;;
18716;SDS011;9487;50.892;6.906;2023-02-18T02:14:42;7.80;;;7.00;;
18716;SDS011;9487;50.892;6.906;2023-02-18T02:17:27;7.63;;;6.93;;
18716;SDS011;9487;50.892;6.906;2023-02-18T02:26:20;7.57;;;6.80;;
18716;SDS011;9487;50.892;6.906;2023-02-18T02:32:20;7.83;;;7.03;;
18716;SDS011;9487;50.892;6.906;2023-02-18T02:35:09;6.93;;;6.23;;
18716;SDS011;9487;50.892;6.906;2023-02-18T02:37:43;8.13;;;7.33;;
18716;SDS011;9487;50.892;6.906;2023-02-18T02:40:16;7.10;;;6.27;;
18716;SDS011;9487;50.892;6.906;2023-02-18T02:42:50;7.50;;;6.80;;
18716;SDS011;9487;50.892;6.906;2023-02-18T02:45:31;7.43;;;6.67;;
18716;SDS011;9487;50.892;6.906;2023-02-18T02:48:09;6.10;;;5.60;;
18716;SDS011;9487;50.892;6.906;2023-02-18T02:50:44;5.97;;;5.37;;
18716;SDS011;9487;50.892;6.906;2023-02-18T02:53:15;5.43;;;4.93;;
18716;SDS011;9487;50.892;6.906;2023-02-18T02:55:45;6.50;;;5.90;;
18716;SDS011;9487;50.892;6.906;2023-02-18T02:58:13;7.23;;;6.53;;
18716;SDS011;9487;50.892;6.906;2023-02-18T03:00:43;7.63;;;6.83;;
18716;SDS011;9487;50.892;6.906;2023-02-18T03:03:28;7.90;;;7.00;;
18716;SDS011;9487;50.892;6.906;2023-02-18T03:06:18;8.77;;;6.93;;
18716;SDS011;9487;50.892;6.906;2023-02-18T03:09:13;8.17;;;7.30;;
18716;SDS011;9487;50.892;6.906;2023-02-18T03:11:47;7.63;;;6.10;;
18716;SDS011;9487;50.892;6.906;2023-02-18T03:14:21;8.40;;;6.80;;
18716;SDS011;9487;50.892;6.906;2023-02-18T03:16:56;8.50;;;6.13;;
18716;SDS011;9487;50.892;6.906;2023-02-18T03:19:27;7.10;;;5.67;;
18716;SDS011;9487;50.892;6.906;2023-02-18T03:21:59;6.93;;;5.33;;
18716;SDS011;9487;50.892;6.906;2023-02-18T03:24:31;6.77;;;5.30;;
18716;SDS011;9487;50.892;6.906;2023-02-18T03:27:01;6.47;;;5.87;;
18716;SDS011;9487;50.892;6.906;2023-02-18T03:29:31;7.10;;;6.27;;
18716;SDS011;9487;50.892;6.906;2023-02-18T03:32:01;7.03;;;6.33;;
18716;SDS011;9487;50.892;6.906;2023-02-18T03:34:31;7.20;;;5.50;;
18716;SDS011;9487;50.892;6.906;2023-02-18T03:37:03;5.70;;;5.10;;
18716;SDS011;9487;50.892;6.906;2023-02-18T03:39:31;6.67;;;5.70;;
18716;SDS011;9487;50.892;6.906;2023-02-18T03:42:00;5.17;;;4.37;;
18716;SDS011;9487;50.892;6.906;2023-02-18T03:44:28;5.67;;;3.93;;
18716;SDS011;9487;50.892;6.906;2023-02-18T03:46:56;4.73;;;4.00;;
18716;SDS011;9487;50.892;6.906;2023-02-18T03:49:23;3.47;;;3.17;;
18716;SDS011;9487;50.892;6.906;2023-02-18T03:51:50;3.07;;;2.77;;
18716;SDS011;9487;50.892;6.906;2023-02-18T03:54:19;2.73;;;2.53;;
18716;SDS011;9487;50.892;6.906;2023-02-18T03:56:46;2.30;;;1.93;;
18716;SDS011;9487;50.892;6.906;2023-02-18T03:59:12;1.90;;;1.60;;
18716;SDS011;9487;50.892;6.906;2023-02-18T04:01:39;2.53;;;1.90;;
18716;SDS011;9487;50.892;6.906;2023-02-18T04:04:06;1.67;;;1.50;;
18716;SDS011;9487;50.892;6.906;2023-02-18T04:06:33;2.10;;;1.10;;
18716;SDS011;9487;50.892;6.906;2023-02-18T04:09:00;1.10;;;1.00;;
18716;SDS011;9487;50.892;6.906;2023-02-18T04:11:34;1.97;;;1.53;;
18716;SDS011;9487;50.892;6.906;2023-02-18T04:14:01;1.67;;;1.00;;
18716;SDS011;9487;50.892;6.906;2023-02-18T04:16:28;1.40;;;1.30;;
18716;SDS011;9487;50.892;6.906;2023-02-18T04:18:54;0.90;;;0.90;;
18716;SDS011;9487;50.892;6.906;2023-02-18T04:21:21;0.90;;;0.60;;
18716;SDS011;9487;50.892;6.906;2023-02-18T04:23:48;1.20;;;1.00;;
18716;SDS011;9487;50.892;6.906;2023-02-18T04:26:15;1.20;;;1.10;;
18716;SDS011;9487;50.892;6.906;2023-02-18T04:28:43;1.43;;;1.17;;
18716;SDS011;9487;50.892;6.906;2023-02-18T04:31:10;1.80;;;1.70;;
18716;SDS011;9487;50.892;6.906;2023-02-18T04:33:36;2.60;;;2.00;;
18716;SDS011;9487;50.892;6.906;2023-02-18T04:36:03;1.60;;;1.50;;
18716;SDS011;9487;50.892;6.906;2023-02-18T04:38:31;2.10;;;1.33;;
18716;SDS011;9487;50.892;6.906;2023-02-18T04:40:58;2.50;;;2.30;;
18716;SDS011;9487;50.892;6.906;2023-02-18T04:43:24;1.60;;;1.50;;
18716;SDS011;9487;50.892;6.906;2023-02-18T04:45:53;1.60;;;1.50;;
18716;SDS011;9487;50.892;6.906;2023-02-18T04:48:19;2.63;;;2.43;;
18716;SDS011;9487;50.892;6.906;2023-02-18T04:50:46;2.57;;;2.33;;
18716;SDS011;9487;50.892;6.906;2023-02-18T04:53:14;1.57;;;1.47;;
18716;SDS011;9487;50.892;6.906;2023-02-18T04:55:41;1.20;;;1.00;;
18716;SDS011;9487;50.892;6.906;2023-02-18T04:58:07;2.00;;;1.90;;
18716;SDS011;9487;50.892;6.906;2023-02-18T05:00:35;2.63;;;2.23;;
18716;SDS011;9487;50.892;6.906;2023-02-18T05:03:03;4.50;;;4.10;;
18716;SDS011;9487;50.892;6.906;2023-02-18T05:05:29;4.33;;;3.93;;
18716;SDS011;9487;50.892;6.906;2023-02-18T05:07:56;4.83;;;4.43;;
18716;SDS011;9487;50.892;6.906;2023-02-18T05:10:23;5.27;;;4.20;;
18716;SDS011;9487;50.892;6.906;2023-02-18T05:12:50;4.73;;;4.30;;
18716;SDS011;9487;50.892;6.906;2023-02-18T05:15:17;4.27;;;3.83;;
18716;SDS011;9487;50.892;6.906;2023-02-18T05:17:44;4.87;;;4.37;;
18716;SDS011;9487;50.892;6.906;2023-02-18T05:20:12;5.67;;;4.43;;
18716;SDS011;9487;50.892;6.906;2023-02-18T05:22:39;4.83;;;4.37;;
18716;SDS011;9487;50.892;6.906;2023-02-18T05:25:06;5.00;;;4.50;;
18716;SDS011;9487;50.892;6.906;2023-02-18T05:27:33;5.10;;;4.60;;
18716;SDS011;9487;50.892;6.906;2023-02-18T05:30:00;5.13;;;4.00;;
18716;SDS011;9487;50.892;6.906;2023-02-18T05:32:27;3.73;;;3.30;;
18716;SDS011;9487;50.892;6.906;2023-02-18T05:34:54;2.40;;;2.20;;
18716;SDS011;9487;50.892;6.906;2023-02-18T05:37:22;4.17;;;3.77;;
18716;SDS011;9487;50.892;6.906;2023-02-18T05:39:49;3.50;;;3.00;;
18716;SDS011;9487;50.892;6.906;2023-02-18T05:42:15;2.67;;;1.87;;
18716;SDS011;9487;50.892;6.906;2023-02-18T05:44:42;2.50;;;2.30;;
18716;SDS011;9487;50.892;6.906;2023-02-18T05:47:10;1.90;;;1.50;;
18716;SDS011;9487;50.892;6.906;2023-02-18T05:49:38;1.70;;;1.60;;
18716;SDS011;9487;50.892;6.906;2023-02-18T05:52:05;2.07;;;1.50;;
18716;SDS011;9487;50.892;6.906;2023-02-18T05:54:35;1.50;;;1.40;;
18716;SDS011;9487;50.892;6.906;2023-02-18T05:57:02;1.40;;;1.10;;
18716;SDS011;9487;50.892;6.906;2023-02-18T05:59:30;2.70;;;2.00;;
18716;SDS011;9487;50.892;6.906;2023-02-18T06:01:57;2.10;;;1.90;;
18716;SDS011;9487;50.892;6.906;2023-02-18T06:04:24;4.27;;;2.20;;
18716;SDS011;9487;50.892;6.906;2023-02-18T06:06:51;2.07;;;1.80;;
18716;SDS011;9487;50.892;6.906;2023-02-18T06:09:18;1.90;;;1.20;;
18716;SDS011;9487;50.892;6.906;2023-02-18T06:11:47;2.60;;;2.40;;
18716;SDS011;9487;50.892;6.906;2023-02-18T06:14:13;4.07;;;2.17;;
18716;SDS011;9487;50.892;6.906;2023-02-18T06:16:40;2.73;;;2.40;;
18716;SDS011;9487;50.892;6.906;2023-02-18T06:19:07;1.60;;;1.50;;
18716;SDS011;9487;50.892;6.906;2023-02-18T06:21:34;1.30;;;1.20;;
18716;SDS011;9487;50.892;6.906;2023-02-18T06:24:01;1.70;;;1.60;;
18716;SDS011;9487;50.892;6.906;2023-02-18T06:26:28;2.40;;;2.20;;
18716;SDS011;9487;50.892;6.906;2023-02-18T06:28:56;1.70;;;1.20;;
18716;SDS011;9487;50.892;6.906;2023-02-18T06:31:23;1.40;;;1.30;;
18716;SDS011;9487;50.892;6.906;2023-02-18T06:33:49;1.37;;;0.80;;
18716;SDS011;9487;50.892;6.906;2023-02-18T06:36:16;0.90;;;0.73;;
18716;SDS011;9487;50.892;6.906;2023-02-18T06:38:43;0.70;;;0.70;;
18716;SDS011;9487;50.892;6.906;2023-02-18T06:41:12;0.87;;;0.80;;
18716;SDS011;9487;50.892;6.906;2023-02-18T06:43:40;0.70;;;0.60;;
18716;SDS011;9487;50.892;6.906;2023-02-18T06:46:08;0.67;;;0.67;;
18716;SDS011;9487;50.892;6.906;2023-02-18T06:48:35;0.50;;;0.50;;
18716;SDS011;9487;50.892;6.906;2023-02-18T06:51:03;0.50;;;0.40;;
18716;SDS011;9487;50.892;6.906;2023-02-18T06:53:30;0.60;;;0.50;;
18716;SDS011;9487;50.892;6.906;2023-02-18T06:55:57;0.80;;;0.50;;
18716;SDS011;9487;50.892;6.906;2023-02-18T06:58:23;1.20;;;0.73;;
18716;SDS011;9487;50.892;6.906;2023-02-18T07:00:50;0.40;;;0.40;;
18716;SDS011;9487;50.892;6.906;2023-02-18T07:03:18;0.40;;;0.40;;
18716;SDS011;9487;50.892;6.906;2023-02-18T07:05:45;1.47;;;0.60;;
18716;SDS011;9487;50.892;6.906;2023-02-18T07:08:12;0.50;;;0.50;;
18716;SDS011;9487;50.892;6.906;2023-02-18T07:10:39;0.90;;;0.60;;
18716;SDS011;9487;50.892;6.906;2023-02-18T07:13:06;1.17;;;0.90;;
18716;SDS011;9487;50.892;6.906;2023-02-18T07:15:33;0.50;;;0.50;;
18716;SDS011;9487;50.892;6.906;2023-02-18T07:18:00;1.30;;;0.50;;
18716;SDS011;9487;50.892;6.906;2023-02-18T07:20:28;0.70;;;0.57;;
18716;SDS011;9487;50.892;6.906;2023-02-18T07:22:55;0.60;;;0.50;;
18716;SDS011;9487;50.892;6.906;2023-02-18T07:25:22;0.63;;;0.50;;
18716;SDS011;9487;50.892;6.906;2023-02-18T07:27:49;1.27;;;0.50;;
18716;SDS011;9487;50.892;6.906;2023-02-18T07:30:16;0.60;;;0.50;;
18716;SDS011;9487;50.892;6.906;2023-02-18T07:32:43;0.50;;;0.50;;
18716;SDS011;9487;50.892;6.906;2023-02-18T07:35:12;1.00;;;0.50;;
18716;SDS011;9487;50.892;6.906;2023-02-18T07:37:41;0.57;;;0.50;;
18716;SDS011;9487;50.892;6.906;2023-02-18T07:40:11;0.43;;;0.43;;
18716;SDS011;9487;50.892;6.906;2023-02-18T07:42:39;0.77;;;0.50;;
18716;SDS011;9487;50.892;6.906;2023-02-18T07:45:06;0.50;;;0.50;;
18716;SDS011;9487;50.892;6.906;2023-02-18T07:47:34;0.80;;;0.50;;
18716;SDS011;9487;50.892;6.906;2023-02-18T07:50:01;0.80;;;0.60;;
18716;SDS011;9487;50.892;6.906;2023-02-18T07:52:28;1.00;;;0.60;;
18716;SDS011;9487;50.892;6.906;2023-02-18T07:54:56;1.43;;;0.80;;
18716;SDS011;9487;50.892;6.906;2023-02-18T07:57:23;0.70;;;0.70;;
18716;SDS011;9487;50.892;6.906;2023-02-18T07:59:49;1.10;;;0.70;;
18716;SDS011;9487;50.892;6.906;2023-02-18T08:02:17;1.23;;;0.70;;
18716;SDS011;9487;50.892;6.906;2023-02-18T08:04:46;0.70;;;0.60;;
18716;SDS011;9487;50.892;6.906;2023-02-18T08:07:13;1.43;;;0.67;;
18716;SDS011;9487;50.892;6.906;2023-02-18T08:09:41;0.80;;;0.70;;
18716;SDS011;9487;50.892;6.906;2023-02-18T08:12:09;5.57;;;1.40;;
18716;SDS011;9487;50.892;6.906;2023-02-18T08:14:36;2.10;;;0.90;;
18716;SDS011;9487;50.892;6.906;2023-02-18T08:17:02;2.07;;;1.00;;
18716;SDS011;9487;50.892;6.906;2023-02-18T08:19:29;2.20;;;0.90;;
18716;SDS011;9487;50.892;6.906;2023-02-18T08:21:59;2.70;;;1.20;;
18716;SDS011;9487;50.892;6.906;2023-02-18T08:24:26;1.67;;;1.40;;
18716;SDS011;9487;50.892;6.906;2023-02-18T08:26:53;2.93;;;1.20;;
18716;SDS011;9487;50.892;6.906;2023-02-18T08:29:21;3.47;;;1.50;;
18716;SDS011;9487;50.892;6.906;2023-02-18T08:31:48;3.00;;;1.80;;
18716;SDS011;9487;50.892;6.906;2023-02-18T08:34:16;6.00;;;2.30;;
18716;SDS011;9487;50.892;6.906;2023-02-18T08:36:43;3.10;;;1.90;;
18716;SDS011;9487;50.892;6.906;2023-02-18T08:39:10;2.73;;;1.47;;
18716;SDS011;9487;50.892;6.906;2023-02-18T08:41:36;5.30;;;2.40;;
18716;SDS011;9487;50.892;6.906;2023-02-18T08:44:03;2.17;;;1.83;;
18716;SDS011;9487;50.892;6.906;2023-02-18T08:46:32;5.33;;;2.40;;
18716;SDS011;9487;50.892;6.906;2023-02-18T08:48:58;6.47;;;2.03;;
18716;SDS011;9487;50.892;6.906;2023-02-18T08:51:25;4.97;;;2.50;;
18716;SDS011;9487;50.892;6.906;2023-02-18T08:53:52;4.17;;;2.17;;
18716;SDS011;9487;50.892;6.906;2023-02-18T08:56:19;6.07;;;2.10;;
18716;SDS011;9487;50.892;6.906;2023-02-18T08:58:46;3.03;;;2.00;;
18716;SDS011;9487;50.892;6.906;2023-02-18T09:01:12;5.50;;;2.50;;
18716;SDS011;9487;50.892;6.906;2023-02-18T09:03:41;5.30;;;2.00;;
18716;SDS011;9487;50.892;6.906;2023-02-18T09:06:08;4.40;;;1.73;;
18716;SDS011;9487;50.892;6.906;2023-02-18T09:08:36;5.90;;;2.17;;
18716;SDS011;9487;50.892;6.906;2023-02-18T09:11:03;7.27;;;2.60;;
18716;SDS011;9487;50.892;6.906;2023-02-18T09:13:30;8.00;;;2.27;;
18716;SDS011;9487;50.892;6.906;2023-02-18T09:15:58;6.03;;;2.33;;
18716;SDS011;9487;50.892;6.906;2023-02-18T09:18:26;5.00;;;2.77;;
18716;SDS011;9487;50.892;6.906;2023-02-18T09:20:55;6.17;;;2.73;;
18716;SDS011;9487;50.892;6.906;2023-02-18T09:23:23;5.43;;;2.13;;
18716;SDS011;9487;50.892;6.906;2023-02-18T09:25:51;5.40;;;2.50;;
18716;SDS011;9487;50.892;6.906;2023-02-18T09:28:19;5.53;;;2.27;;
18716;SDS011;9487;50.892;6.906;2023-02-18T09:30:46;6.00;;;2.33;;
18716;SDS011;9487;50.892;6.906;2023-02-18T09:33:13;4.37;;;2.00;;
18716;SDS011;9487;50.892;6.906;2023-02-18T09:35:41;8.67;;;2.50;;
18716;SDS011;9487;50.892;6.906;2023-02-18T09:38:10;4.87;;;1.93;;
18716;SDS011;9487;50.892;6.906;2023-02-18T09:40:41;6.17;;;2.23;;
18716;SDS011;9487;50.892;6.906;2023-02-18T09:43:11;6.60;;;2.00;;
18716;SDS011;9487;50.892;6.906;2023-02-18T09:45:47;3.17;;;2.00;;
18716;SDS011;9487;50.892;6.906;2023-02-18T09:48:16;7.37;;;2.20;;
18716;SDS011;9487;50.892;6.906;2023-02-18T09:50:43;4.83;;;2.30;;
18716;SDS011;9487;50.892;6.906;2023-02-18T09:53:16;6.33;;;2.10;;
18716;SDS011;9487;50.892;6.906;2023-02-18T09:55:44;5.23;;;1.80;;
18716;SDS011;9487;50.892;6.906;2023-02-18T09:58:13;3.27;;;1.53;;
18716;SDS011;9487;50.892;6.906;2023-02-18T10:00:43;6.47;;;2.10;;
18716;SDS011;9487;50.892;6.906;2023-02-18T10:03:13;6.10;;;2.30;;
18716;SDS011;9487;50.892;6.906;2023-02-18T10:05:51;5.47;;;2.50;;
18716;SDS011;9487;50.892;6.906;2023-02-18T10:08:25;5.27;;;1.90;;
18716;SDS011;9487;50.892;6.906;2023-02-18T10:10:53;3.67;;;1.87;;
18716;SDS011;9487;50.892;6.906;2023-02-18T10:13:21;9.30;;;2.17;;
18716;SDS011;9487;50.892;6.906;2023-02-18T10:15:50;4.97;;;2.07;;
18716;SDS011;9487;50.892;6.906;2023-02-18T10:18:23;5.67;;;2.30;;
18716;SDS011;9487;50.892;6.906;2023-02-18T10:20:56;5.40;;;1.90;;
18716;SDS011;9487;50.892;6.906;2023-02-18T10:23:29;5.33;;;1.90;;
18716;SDS011;9487;50.892;6.906;2023-02-18T10:25:57;6.23;;;2.97;;
18716;SDS011;9487;50.892;6.906;2023-02-18T10:28:26;2.27;;;1.90;;
18716;SDS011;9487;50.892;6.906;2023-02-18T10:30:54;5.50;;;2.27;;
18716;SDS011;9487;50.892;6.906;2023-02-18T10:33:31;4.77;;;2.40;;
18716;SDS011;9487;50.892;6.906;2023-02-18T10:36:02;4.80;;;2.53;;
18716;SDS011;9487;50.892;6.906;2023-02-18T10:38:40;4.53;;;2.40;;
18716;SDS011;9487;50.892;6.906;2023-02-18T10:41:21;5.63;;;2.53;;
18716;SDS011;9487;50.892;6.906;2023-02-18T10:43:58;6.43;;;2.37;;
18716;SDS011;9487;50.892;6.906;2023-02-18T10:46:33;4.93;;;2.50;;
18716;SDS011;9487;50.892;6.906;2023-02-18T10:49:11;3.10;;;1.80;;
18716;SDS011;9487;50.892;6.906;2023-02-18T10:51:53;6.63;;;2.50;;
18716;SDS011;9487;50.892;6.906;2023-02-18T10:54:24;4.73;;;2.53;;
18716;SDS011;9487;50.892;6.906;2023-02-18T10:57:14;5.13;;;3.10;;
18716;SDS011;9487;50.892;6.906;2023-02-18T10:59:52;6.07;;;2.67;;
18716;SDS011;9487;50.892;6.906;2023-02-18T11:02:22;6.57;;;2.80;;
18716;SDS011;9487;50.892;6.906;2023-02-18T11:04:53;5.10;;;2.43;;
18716;SDS011;9487;50.892;6.906;2023-02-18T11:07:22;7.43;;;3.00;;
18716;SDS011;9487;50.892;6.906;2023-02-18T11:09:51;5.93;;;2.70;;
18716;SDS011;9487;50.892;6.906;2023-02-18T11:12:22;3.57;;;2.40;;
18716;SDS011;9487;50.892;6.906;2023-02-18T11:15:02;4.63;;;2.70;;
18716;SDS011;9487;50.892;6.906;2023-02-18T11:17:33;3.77;;;2.53;;
18716;SDS011;9487;50.892;6.906;2023-02-18T11:20:04;3.43;;;2.60;;
18716;SDS011;9487;50.892;6.906;2023-02-18T11:22:55;3.57;;;2.37;;
18716;SDS011;9487;50.892;6.906;2023-02-18T11:25:24;4.37;;;2.20;;
18716;SDS011;9487;50.892;6.906;2023-02-18T11:27:55;2.13;;;1.70;;
18716;SDS011;9487;50.892;6.906;2023-02-18T11:30:25;2.87;;;1.63;;
18716;SDS011;9487;50.892;6.906;2023-02-18T11:32:57;2.03;;;1.80;;
18716;SDS011;9487;50.892;6.906;2023-02-18T11:35:27;1.00;;;0.90;;
18716;SDS011;9487;50.892;6.906;2023-02-18T11:37:56;3.43;;;1.67;;
18716;SDS011;9487;50.892;6.906;2023-02-18T11:40:26;2.70;;;1.53;;
18716;SDS011;9487;50.892;6.906;2023-02-18T11:43:03;2.53;;;1.70;;
18716;SDS011;9487;50.892;6.906;2023-02-18T11:45:31;2.33;;;1.40;;
18716;SDS011;9487;50.892;6.906;2023-02-18T11:48:00;3.53;;;1.80;;
18716;SDS011;9487;50.892;6.906;2023-02-18T11:50:31;4.37;;;1.80;;
18716;SDS011;9487;50.892;6.906;2023-02-18T11:52:59;1.90;;;1.50;;
18716;SDS011;9487;50.892;6.906;2023-02-18T11:55:43;2.13;;;1.60;;
18716;SDS011;9487;50.892;6.906;2023-02-18T11:58:21;2.50;;;1.57;;
18716;SDS011;9487;50.892;6.906;2023-02-18T12:00:49;2.90;;;1.70;;
18716;SDS011;9487;50.892;6.906;2023-02-18T12:03:17;3.20;;;1.50;;
18716;SDS011;9487;50.892;6.906;2023-02-18T12:05:53;1.73;;;1.50;;
18716;SDS011;9487;50.892;6.906;2023-02-18T12:08:23;3.70;;;2.30;;
18716;SDS011;9487;50.892;6.906;2023-02-18T12:10:53;2.57;;;1.97;;
18716;SDS011;9487;50.892;6.906;2023-02-18T12:13:27;3.00;;;1.90;;
18716;SDS011;9487;50.892;6.906;2023-02-18T12:16:01;2.53;;;1.80;;
18716;SDS011;9487;50.892;6.906;2023-02-18T12:18:44;1.63;;;1.47;;
18716;SDS011;9487;50.892;6.906;2023-02-18T12:21:28;1.80;;;1.70;;
18716;SDS011;9487;50.892;6.906;2023-02-18T12:24:02;2.57;;;1.97;;
18716;SDS011;9487;50.892;6.906;2023-02-18T12:26:44;2.13;;;2.00;;
18716;SDS011;9487;50.892;6.906;2023-02-18T12:29:29;1.90;;;1.70;;
18716;SDS011;9487;50.892;6.906;2023-02-18T12:32:11;2.80;;;2.20;;
18716;SDS011;9487;50.892;6.906;2023-02-18T12:34:52;2.63;;;2.43;;
18716;SDS011;9487;50.892;6.906;2023-02-18T12:40:23;1.80;;;1.70;;
18716;SDS011;9487;50.892;6.906;2023-02-18T12:43:06;4.33;;;2.10;;
18716;SDS011;9487;50.892;6.906;2023-02-18T12:45:48;3.40;;;1.87;;
18716;SDS011;9487;50.892;6.906;2023-02-18T12:51:31;2.53;;;1.70;;
18716;SDS011;9487;50.892;6.906;2023-02-18T12:54:16;2.13;;;1.47;;
18716;SDS011;9487;50.892;6.906;2023-02-18T12:56:56;3.77;;;2.00;;
18716;SDS011;9487;50.892;6.906;2023-02-18T13:02:30;1.93;;;1.70;;
18716;SDS011;9487;50.892;6.906;2023-02-18T13:05:17;3.07;;;2.20;;
18716;SDS011;9487;50.892;6.906;2023-02-18T13:08:02;3.20;;;2.60;;
18716;SDS011;9487;50.892;6.906;2023-02-18T13:10:43;3.33;;;2.67;;
18716;SDS011;9487;50.892;6.906;2023-02-18T13:13:18;3.23;;;2.20;;
18716;SDS011;9487;50.892;6.906;2023-02-18T13:15:47;2.80;;;2.40;;
18716;SDS011;9487;50.892;6.906;2023-02-18T13:18:19;2.30;;;2.10;;
18716;SDS011;9487;50.892;6.906;2023-02-18T13:20:48;3.07;;;2.30;;
18716;SDS011;9487;50.892;6.906;2023-02-18T13:23:18;2.50;;;2.30;;
18716;SDS011;9487;50.892;6.906;2023-02-18T13:25:48;2.37;;;2.17;;
18716;SDS011;9487;50.892;6.906;2023-02-18T13:28:21;2.43;;;2.23;;
18716;SDS011;9487;50.892;6.906;2023-02-18T13:30:56;2.93;;;2.43;;
18716;SDS011;9487;50.892;6.906;2023-02-18T13:33:33;2.80;;;2.60;;
18716;SDS011;9487;50.892;6.906;2023-02-18T13:36:09;3.60;;;2.93;;
18716;SDS011;9487;50.892;6.906;2023-02-18T13:38:48;2.97;;;2.77;;
18716;SDS011;9487;50.892;6.906;2023-02-18T13:41:19;3.20;;;2.57;;
18716;SDS011;9487;50.892;6.906;2023-02-18T13:43:46;3.53;;;3.23;;
18716;SDS011;9487;50.892;6.906;2023-02-18T13:46:13;3.10;;;2.80;;
18716;SDS011;9487;50.892;6.906;2023-02-18T13:48:45;3.10;;;2.80;;
18716;SDS011;9487;50.892;6.906;2023-02-18T13:51:14;3.07;;;2.50;;
18716;SDS011;9487;50.892;6.906;2023-02-18T13:53:43;3.37;;;3.07;;
18716;SDS011;9487;50.892;6.906;2023-02-18T13:56:20;3.93;;;3.50;;
18716;SDS011;9487;50.892;6.906;2023-02-18T13:58:53;4.13;;;3.33;;
18716;SDS011;9487;50.892;6.906;2023-02-18T14:01:32;4.37;;;3.27;;
18716;SDS011;9487;50.892;6.906;2023-02-18T14:07:28;3.00;;;2.80;;
18716;SDS011;9487;50.892;6.906;2023-02-18T14:10:23;3.57;;;2.43;;
18716;SDS011;9487;50.892;6.906;2023-02-18T14:13:16;2.50;;;2.30;;
18716;SDS011;9487;50.892;6.906;2023-02-18T14:16:02;3.57;;;2.77;;
18716;SDS011;9487;50.892;6.906;2023-02-18T14:18:30;2.93;;;2.60;;
18716;SDS011;9487;50.892;6.906;2023-02-18T14:21:19;2.20;;;2.10;;
18716;SDS011;9487;50.892;6.906;2023-02-18T14:23:57;2.73;;;2.53;;
18716;SDS011;9487;50.892;6.906;2023-02-18T14:26:30;2.70;;;2.50;;
18716;SDS011;9487;50.892;6.906;2023-02-18T14:29:00;2.23;;;2.03;;
18716;SDS011;9487;50.892;6.906;2023-02-18T14:31:34;2.60;;;2.40;;
18716;SDS011;9487;50.892;6.906;2023-02-18T14:37:14;2.00;;;1.90;;
18716;SDS011;9487;50.892;6.906;2023-02-18T14:39:57;2.97;;;2.33;;
18716;SDS011;9487;50.892;6.906;2023-02-18T14:42:37;2.17;;;2.07;;
18716;SDS011;9487;50.892;6.906;2023-02-18T14:45:13;2.30;;;2.10;;
18716;SDS011;9487;50.892;6.906;2023-02-18T14:48:04;2.30;;;2.10;;
18716;SDS011;9487;50.892;6.906;2023-02-18T14:50:53;2.80;;;2.60;;
18716;SDS011;9487;50.892;6.906;2023-02-18T14:53:22;3.27;;;2.70;;
18716;SDS011;9487;50.892;6.906;2023-02-18T14:55:52;2.80;;;2.60;;
18716;SDS011;9487;50.892;6.906;2023-02-18T14:58:25;2.43;;;1.90;;
18716;SDS011;9487;50.892;6.906;2023-02-18T15:00:55;2.63;;;2.40;;
18716;SDS011;9487;50.892;6.906;2023-02-18T15:03:22;2.80;;;2.60;;
18716;SDS011;9487;50.892;6.906;2023-02-18T15:05:52;2.63;;;2.40;;
18716;SDS011;9487;50.892;6.906;2023-02-18T15:08:19;2.87;;;2.67;;
18716;SDS011;9487;50.892;6.906;2023-02-18T15:10:49;2.70;;;2.50;;
18716;SDS011;9487;50.892;6.906;2023-02-18T15:13:19;2.57;;;2.37;;
18716;SDS011;9487;50.892;6.906;2023-02-18T15:15:51;2.60;;;2.37;;
18716;SDS011;9487;50.892;6.906;2023-02-18T15:18:26;3.00;;;2.70;;
18716;SDS011;9487;50.892;6.906;2023-02-18T15:20:56;3.63;;;2.70;;
18716;SDS011;9487;50.892;6.906;2023-02-18T15:23:26;3.10;;;2.43;;
18716;SDS011;9487;50.892;6.906;2023-02-18T15:25:55;2.23;;;2.13;;
18716;SDS011;9487;50.892;6.906;2023-02-18T15:28:24;3.20;;;2.93;;
18716;SDS011;9487;50.892;6.906;2023-02-18T15:30:52;2.83;;;2.50;;
18716;SDS011;9487;50.892;6.906;2023-02-18T15:33:21;3.57;;;2.57;;
18716;SDS011;9487;50.892;6.906;2023-02-18T15:35:48;4.37;;;2.93;;
18716;SDS011;9487;50.892;6.906;2023-02-18T15:38:16;3.20;;;2.90;;
18716;SDS011;9487;50.892;6.906;2023-02-18T15:40:45;2.63;;;2.43;;
18716;SDS011;9487;50.892;6.906;2023-02-18T15:43:20;3.23;;;3.00;;
18716;SDS011;9487;50.892;6.906;2023-02-18T15:45:51;2.83;;;2.63;;
18716;SDS011;9487;50.892;6.906;2023-02-18T15:48:25;3.47;;;3.17;;